sensor_id;sensor_type;location;lat;lon;timestamp;P1;durP1;ratioP1;P2;durP2;ratioP2
48040;SDS011;33815;48.386;11.738;2023-04-16T00:01:17;7.13;;;6.43;;
48040;SDS011;33815;48.386;11.738;2023-04-16T00:03:42;7.45;;;5.07;;
48040;SDS011;33815;48.386;11.738;2023-04-16T00:06:07;7.53;;;6.07;;
48040;SDS011;33815;48.386;11.738;2023-04-16T00:08:34;6.15;;;5.55;;
48040;SDS011;33815;48.386;11.738;2023-04-16T00:10:59;7.10;;;5.90;;
48040;SDS011;33815;48.386;11.738;2023-04-16T00:13:25;6.78;;;5.20;;
48040;SDS011;33815;48.386;11.738;2023-04-16T00:15:51;6.72;;;5.63;;
48040;SDS011;33815;48.386;11.738;2023-04-16T00:18:16;6.15;;;5.07;;
48040;SDS011;33815;48.386;11.738;2023-04-16T00:20:42;5.18;;;4.32;;
48040;SDS011;33815;48.386;11.738;2023-04-16T00:23:07;7.22;;;4.82;;
48040;SDS011;33815;48.386;11.738;2023-04-16T00:25:32;5.40;;;4.28;;
48040;SDS011;33815;48.386;11.738;2023-04-16T00:27:57;6.38;;;4.40;;
48040;SDS011;33815;48.386;11.738;2023-04-16T00:30:23;4.90;;;4.38;;
48040;SDS011;33815;48.386;11.738;2023-04-16T00:32:48;6.60;;;4.38;;
48040;SDS011;33815;48.386;11.738;2023-04-16T00:35:13;4.13;;;3.67;;
48040;SDS011;33815;48.386;11.738;2023-04-16T00:37:38;5.18;;;4.07;;
48040;SDS011;33815;48.386;11.738;2023-04-16T00:40:04;5.43;;;3.60;;
48040;SDS011;33815;48.386;11.738;2023-04-16T00:42:30;4.38;;;3.97;;
48040;SDS011;33815;48.386;11.738;2023-04-16T00:44:55;4.03;;;3.53;;
48040;SDS011;33815;48.386;11.738;2023-04-16T00:47:20;4.53;;;3.67;;
48040;SDS011;33815;48.386;11.738;2023-04-16T00:49:46;5.25;;;3.90;;
48040;SDS011;33815;48.386;11.738;2023-04-16T00:52:11;4.70;;;3.88;;
48040;SDS011;33815;48.386;11.738;2023-04-16T00:54:37;3.50;;;3.20;;
48040;SDS011;33815;48.386;11.738;2023-04-16T00:57:03;4.75;;;3.55;;
48040;SDS011;33815;48.386;11.738;2023-04-16T00:59:28;4.47;;;3.65;;
48040;SDS011;33815;48.386;11.738;2023-04-16T01:01:53;4.03;;;3.63;;
48040;SDS011;33815;48.386;11.738;2023-04-16T01:04:19;5.75;;;3.63;;
48040;SDS011;33815;48.386;11.738;2023-04-16T01:06:44;4.90;;;4.20;;
48040;SDS011;33815;48.386;11.738;2023-04-16T01:09:10;4.10;;;3.70;;
48040;SDS011;33815;48.386;11.738;2023-04-16T01:11:38;4.07;;;3.63;;
48040;SDS011;33815;48.386;11.738;2023-04-16T01:14:03;6.05;;;4.18;;
48040;SDS011;33815;48.386;11.738;2023-04-16T01:16:29;5.18;;;3.97;;
48040;SDS011;33815;48.386;11.738;2023-04-16T01:18:54;7.05;;;4.45;;
48040;SDS011;33815;48.386;11.738;2023-04-16T01:21:20;5.00;;;4.32;;
48040;SDS011;33815;48.386;11.738;2023-04-16T01:23:45;4.75;;;3.83;;
48040;SDS011;33815;48.386;11.738;2023-04-16T01:26:10;4.45;;;4.05;;
48040;SDS011;33815;48.386;11.738;2023-04-16T01:28:36;5.13;;;3.92;;
48040;SDS011;33815;48.386;11.738;2023-04-16T01:31:01;5.05;;;4.07;;
48040;SDS011;33815;48.386;11.738;2023-04-16T01:33:26;4.18;;;3.75;;
48040;SDS011;33815;48.386;11.738;2023-04-16T01:35:51;5.13;;;4.38;;
48040;SDS011;33815;48.386;11.738;2023-04-16T01:38:17;4.28;;;3.58;;
48040;SDS011;33815;48.386;11.738;2023-04-16T01:40:42;4.25;;;3.85;;
48040;SDS011;33815;48.386;11.738;2023-04-16T01:43:07;5.57;;;4.40;;
48040;SDS011;33815;48.386;11.738;2023-04-16T01:45:33;4.65;;;4.22;;
48040;SDS011;33815;48.386;11.738;2023-04-16T01:47:59;5.88;;;4.00;;
48040;SDS011;33815;48.386;11.738;2023-04-16T01:50:24;5.78;;;4.03;;
48040;SDS011;33815;48.386;11.738;2023-04-16T01:52:49;4.97;;;4.47;;
48040;SDS011;33815;48.386;11.738;2023-04-16T01:55:15;4.00;;;3.60;;
48040;SDS011;33815;48.386;11.738;2023-04-16T01:57:40;5.13;;;4.63;;
48040;SDS011;33815;48.386;11.738;2023-04-16T02:00:05;5.10;;;4.50;;
48040;SDS011;33815;48.386;11.738;2023-04-16T02:02:32;5.00;;;4.50;;
48040;SDS011;33815;48.386;11.738;2023-04-16T02:04:58;6.38;;;4.78;;
48040;SDS011;33815;48.386;11.738;2023-04-16T02:07:23;5.03;;;4.32;;
48040;SDS011;33815;48.386;11.738;2023-04-16T02:09:49;5.00;;;4.50;;
48040;SDS011;33815;48.386;11.738;2023-04-16T02:12:17;7.55;;;4.93;;
48040;SDS011;33815;48.386;11.738;2023-04-16T02:14:43;7.68;;;4.53;;
48040;SDS011;33815;48.386;11.738;2023-04-16T02:17:08;5.35;;;4.75;;
48040;SDS011;33815;48.386;11.738;2023-04-16T02:19:34;4.40;;;4.00;;
48040;SDS011;33815;48.386;11.738;2023-04-16T02:22:00;5.07;;;4.53;;
48040;SDS011;33815;48.386;11.738;2023-04-16T02:24:28;5.88;;;4.90;;
48040;SDS011;33815;48.386;11.738;2023-04-16T02:26:53;5.78;;;4.97;;
48040;SDS011;33815;48.386;11.738;2023-04-16T02:29:19;5.97;;;4.57;;
48040;SDS011;33815;48.386;11.738;2023-04-16T02:31:45;5.50;;;4.82;;
48040;SDS011;33815;48.386;11.738;2023-04-16T02:34:10;6.15;;;5.22;;
48040;SDS011;33815;48.386;11.738;2023-04-16T02:36:36;8.18;;;5.80;;
48040;SDS011;33815;48.386;11.738;2023-04-16T02:39:02;6.97;;;5.53;;
48040;SDS011;33815;48.386;11.738;2023-04-16T02:41:28;6.85;;;5.13;;
48040;SDS011;33815;48.386;11.738;2023-04-16T02:43:53;7.03;;;5.68;;
48040;SDS011;33815;48.386;11.738;2023-04-16T02:46:18;7.07;;;5.45;;
48040;SDS011;33815;48.386;11.738;2023-04-16T02:48:43;6.95;;;5.70;;
48040;SDS011;33815;48.386;11.738;2023-04-16T02:51:09;5.65;;;5.13;;
48040;SDS011;33815;48.386;11.738;2023-04-16T02:53:34;7.75;;;5.68;;
48040;SDS011;33815;48.386;11.738;2023-04-16T02:55:59;7.32;;;6.20;;
48040;SDS011;33815;48.386;11.738;2023-04-16T02:58:25;9.13;;;6.18;;
48040;SDS011;33815;48.386;11.738;2023-04-16T03:00:51;7.93;;;7.00;;
48040;SDS011;33815;48.386;11.738;2023-04-16T03:03:18;9.00;;;6.43;;
48040;SDS011;33815;48.386;11.738;2023-04-16T03:05:44;7.13;;;6.20;;
48040;SDS011;33815;48.386;11.738;2023-04-16T03:08:09;9.75;;;7.20;;
48040;SDS011;33815;48.386;11.738;2023-04-16T03:10:35;7.30;;;6.15;;
48040;SDS011;33815;48.386;11.738;2023-04-16T03:13:01;9.02;;;6.82;;
48040;SDS011;33815;48.386;11.738;2023-04-16T03:15:27;6.90;;;6.15;;
48040;SDS011;33815;48.386;11.738;2023-04-16T03:17:52;8.70;;;7.03;;
48040;SDS011;33815;48.386;11.738;2023-04-16T03:20:18;8.75;;;7.07;;
48040;SDS011;33815;48.386;11.738;2023-04-16T03:22:44;11.07;;;7.30;;
48040;SDS011;33815;48.386;11.738;2023-04-16T03:25:10;8.48;;;6.60;;
48040;SDS011;33815;48.386;11.738;2023-04-16T03:27:36;10.80;;;6.32;;
48040;SDS011;33815;48.386;11.738;2023-04-16T03:30:03;10.52;;;7.63;;
48040;SDS011;33815;48.386;11.738;2023-04-16T03:32:32;10.25;;;7.47;;
48040;SDS011;33815;48.386;11.738;2023-04-16T03:34:57;12.27;;;6.95;;
48040;SDS011;33815;48.386;11.738;2023-04-16T03:37:23;10.30;;;7.10;;
48040;SDS011;33815;48.386;11.738;2023-04-16T03:39:48;11.10;;;7.75;;
48040;SDS011;33815;48.386;11.738;2023-04-16T03:42:13;9.88;;;7.32;;
48040;SDS011;33815;48.386;11.738;2023-04-16T03:44:39;10.00;;;7.90;;
48040;SDS011;33815;48.386;11.738;2023-04-16T03:47:04;9.48;;;7.97;;
48040;SDS011;33815;48.386;11.738;2023-04-16T03:49:29;10.02;;;7.88;;
48040;SDS011;33815;48.386;11.738;2023-04-16T03:51:55;10.55;;;8.02;;
48040;SDS011;33815;48.386;11.738;2023-04-16T03:54:20;8.35;;;7.20;;
48040;SDS011;33815;48.386;11.738;2023-04-16T03:56:45;10.07;;;7.93;;
48040;SDS011;33815;48.386;11.738;2023-04-16T03:59:11;8.95;;;6.93;;
48040;SDS011;33815;48.386;11.738;2023-04-16T04:01:36;11.55;;;7.97;;
48040;SDS011;33815;48.386;11.738;2023-04-16T04:04:01;10.80;;;7.83;;
48040;SDS011;33815;48.386;11.738;2023-04-16T04:06:27;10.38;;;7.00;;
48040;SDS011;33815;48.386;11.738;2023-04-16T04:08:52;10.82;;;7.75;;
48040;SDS011;33815;48.386;11.738;2023-04-16T04:11:18;8.45;;;6.65;;
48040;SDS011;33815;48.386;11.738;2023-04-16T04:13:43;9.45;;;7.13;;
48040;SDS011;33815;48.386;11.738;2023-04-16T04:16:08;11.25;;;7.63;;
48040;SDS011;33815;48.386;11.738;2023-04-16T04:18:34;8.73;;;6.68;;
48040;SDS011;33815;48.386;11.738;2023-04-16T04:21:03;9.40;;;7.75;;
48040;SDS011;33815;48.386;11.738;2023-04-16T04:23:29;9.85;;;7.47;;
48040;SDS011;33815;48.386;11.738;2023-04-16T04:25:54;8.93;;;7.13;;
48040;SDS011;33815;48.386;11.738;2023-04-16T04:28:20;10.90;;;7.63;;
48040;SDS011;33815;48.386;11.738;2023-04-16T04:30:45;10.50;;;6.70;;
48040;SDS011;33815;48.386;11.738;2023-04-16T04:33:10;8.85;;;7.07;;
48040;SDS011;33815;48.386;11.738;2023-04-16T04:35:35;11.00;;;7.20;;
48040;SDS011;33815;48.386;11.738;2023-04-16T04:38:01;10.05;;;7.35;;
48040;SDS011;33815;48.386;11.738;2023-04-16T04:40:27;10.15;;;7.53;;
48040;SDS011;33815;48.386;11.738;2023-04-16T04:42:52;9.43;;;6.57;;
48040;SDS011;33815;48.386;11.738;2023-04-16T04:45:17;10.38;;;7.70;;
48040;SDS011;33815;48.386;11.738;2023-04-16T04:47:43;9.57;;;6.78;;
48040;SDS011;33815;48.386;11.738;2023-04-16T04:50:08;8.45;;;6.65;;
48040;SDS011;33815;48.386;11.738;2023-04-16T04:52:33;7.68;;;6.55;;
48040;SDS011;33815;48.386;11.738;2023-04-16T04:54:59;8.13;;;6.65;;
48040;SDS011;33815;48.386;11.738;2023-04-16T04:57:25;9.52;;;6.93;;
48040;SDS011;33815;48.386;11.738;2023-04-16T04:59:50;9.32;;;7.10;;
48040;SDS011;33815;48.386;11.738;2023-04-16T05:02:15;10.82;;;7.35;;
48040;SDS011;33815;48.386;11.738;2023-04-16T05:04:41;9.93;;;6.82;;
48040;SDS011;33815;48.386;11.738;2023-04-16T05:07:06;9.88;;;7.30;;
48040;SDS011;33815;48.386;11.738;2023-04-16T05:09:31;8.57;;;6.80;;
48040;SDS011;33815;48.386;11.738;2023-04-16T05:11:56;9.43;;;7.40;;
48040;SDS011;33815;48.386;11.738;2023-04-16T05:14:22;10.73;;;8.18;;
48040;SDS011;33815;48.386;11.738;2023-04-16T05:16:47;10.68;;;8.30;;
48040;SDS011;33815;48.386;11.738;2023-04-16T05:19:12;8.85;;;6.53;;
48040;SDS011;33815;48.386;11.738;2023-04-16T05:21:38;12.70;;;7.90;;
48040;SDS011;33815;48.386;11.738;2023-04-16T05:24:03;8.77;;;7.28;;
48040;SDS011;33815;48.386;11.738;2023-04-16T05:26:28;9.13;;;6.85;;
48040;SDS011;33815;48.386;11.738;2023-04-16T05:28:54;10.43;;;8.07;;
48040;SDS011;33815;48.386;11.738;2023-04-16T05:31:19;10.55;;;7.40;;
48040;SDS011;33815;48.386;11.738;2023-04-16T05:33:45;10.00;;;7.65;;
48040;SDS011;33815;48.386;11.738;2023-04-16T05:36:10;11.27;;;7.78;;
48040;SDS011;33815;48.386;11.738;2023-04-16T05:38:35;12.77;;;7.13;;
48040;SDS011;33815;48.386;11.738;2023-04-16T05:41:01;9.38;;;7.55;;
48040;SDS011;33815;48.386;11.738;2023-04-16T05:43:26;9.82;;;7.40;;
48040;SDS011;33815;48.386;11.738;2023-04-16T05:45:51;9.05;;;7.40;;
48040;SDS011;33815;48.386;11.738;2023-04-16T05:48:16;9.23;;;6.95;;
48040;SDS011;33815;48.386;11.738;2023-04-16T05:50:43;9.27;;;7.30;;
48040;SDS011;33815;48.386;11.738;2023-04-16T05:53:09;9.45;;;6.88;;
48040;SDS011;33815;48.386;11.738;2023-04-16T05:55:34;8.13;;;6.70;;
48040;SDS011;33815;48.386;11.738;2023-04-16T05:58:03;8.40;;;6.75;;
48040;SDS011;33815;48.386;11.738;2023-04-16T06:00:29;10.32;;;7.55;;
48040;SDS011;33815;48.386;11.738;2023-04-16T06:02:55;9.35;;;7.55;;
48040;SDS011;33815;48.386;11.738;2023-04-16T06:05:20;9.02;;;6.55;;
48040;SDS011;33815;48.386;11.738;2023-04-16T06:07:46;9.70;;;7.35;;
48040;SDS011;33815;48.386;11.738;2023-04-16T06:10:11;10.18;;;7.70;;
48040;SDS011;33815;48.386;11.738;2023-04-16T06:12:36;10.88;;;8.05;;
48040;SDS011;33815;48.386;11.738;2023-04-16T06:15:01;9.50;;;7.13;;
48040;SDS011;33815;48.386;11.738;2023-04-16T06:17:27;6.88;;;6.18;;
48040;SDS011;33815;48.386;11.738;2023-04-16T06:19:52;7.80;;;6.50;;
48040;SDS011;33815;48.386;11.738;2023-04-16T06:22:18;8.80;;;6.82;;
48040;SDS011;33815;48.386;11.738;2023-04-16T06:24:43;8.60;;;6.78;;
48040;SDS011;33815;48.386;11.738;2023-04-16T06:27:08;7.85;;;5.97;;
48040;SDS011;33815;48.386;11.738;2023-04-16T06:29:34;7.60;;;6.68;;
48040;SDS011;33815;48.386;11.738;2023-04-16T06:31:59;11.48;;;6.53;;
48040;SDS011;33815;48.386;11.738;2023-04-16T06:34:25;9.23;;;6.85;;
48040;SDS011;33815;48.386;11.738;2023-04-16T06:36:51;10.80;;;7.82;;
48040;SDS011;33815;48.386;11.738;2023-04-16T06:39:17;8.82;;;7.35;;
48040;SDS011;33815;48.386;11.738;2023-04-16T06:41:45;7.75;;;6.65;;
48040;SDS011;33815;48.386;11.738;2023-04-16T06:44:11;8.23;;;7.30;;
48040;SDS011;33815;48.386;11.738;2023-04-16T06:46:36;9.55;;;7.85;;
48040;SDS011;33815;48.386;11.738;2023-04-16T06:49:01;9.20;;;7.50;;
48040;SDS011;33815;48.386;11.738;2023-04-16T06:51:26;9.48;;;7.45;;
48040;SDS011;33815;48.386;11.738;2023-04-16T06:53:52;9.35;;;7.13;;
48040;SDS011;33815;48.386;11.738;2023-04-16T06:56:17;8.63;;;7.18;;
48040;SDS011;33815;48.386;11.738;2023-04-16T06:58:42;10.40;;;7.17;;
48040;SDS011;33815;48.386;11.738;2023-04-16T07:01:07;9.02;;;7.18;;
48040;SDS011;33815;48.386;11.738;2023-04-16T07:03:34;8.20;;;6.65;;
48040;SDS011;33815;48.386;11.738;2023-04-16T07:05:59;9.20;;;7.25;;
48040;SDS011;33815;48.386;11.738;2023-04-16T07:08:24;8.77;;;6.22;;
48040;SDS011;33815;48.386;11.738;2023-04-16T07:10:49;7.47;;;5.90;;
48040;SDS011;33815;48.386;11.738;2023-04-16T07:13:15;8.82;;;7.15;;
48040;SDS011;33815;48.386;11.738;2023-04-16T07:15:42;7.57;;;6.50;;
48040;SDS011;33815;48.386;11.738;2023-04-16T07:18:07;7.60;;;6.00;;
48040;SDS011;33815;48.386;11.738;2023-04-16T07:20:33;8.18;;;6.30;;
48040;SDS011;33815;48.386;11.738;2023-04-16T07:23:00;8.45;;;5.72;;
48040;SDS011;33815;48.386;11.738;2023-04-16T07:25:25;7.05;;;5.85;;
48040;SDS011;33815;48.386;11.738;2023-04-16T07:27:50;6.82;;;5.63;;
48040;SDS011;33815;48.386;11.738;2023-04-16T07:30:16;6.43;;;5.70;;
48040;SDS011;33815;48.386;11.738;2023-04-16T07:32:41;7.13;;;5.45;;
48040;SDS011;33815;48.386;11.738;2023-04-16T07:35:07;8.73;;;6.65;;
48040;SDS011;33815;48.386;11.738;2023-04-16T07:37:32;7.38;;;5.38;;
48040;SDS011;33815;48.386;11.738;2023-04-16T07:39:57;7.93;;;5.27;;
48040;SDS011;33815;48.386;11.738;2023-04-16T07:42:24;6.93;;;5.97;;
48040;SDS011;33815;48.386;11.738;2023-04-16T07:44:50;5.88;;;5.22;;
48040;SDS011;33815;48.386;11.738;2023-04-16T07:47:15;5.82;;;5.13;;
48040;SDS011;33815;48.386;11.738;2023-04-16T07:49:40;5.68;;;4.85;;
48040;SDS011;33815;48.386;11.738;2023-04-16T07:52:06;5.15;;;4.65;;
48040;SDS011;33815;48.386;11.738;2023-04-16T07:54:31;5.20;;;4.65;;
48040;SDS011;33815;48.386;11.738;2023-04-16T07:56:56;3.85;;;3.55;;
48040;SDS011;33815;48.386;11.738;2023-04-16T07:59:21;4.10;;;3.63;;
48040;SDS011;33815;48.386;11.738;2023-04-16T08:01:47;3.10;;;2.85;;
48040;SDS011;33815;48.386;11.738;2023-04-16T08:04:12;4.20;;;3.85;;
48040;SDS011;33815;48.386;11.738;2023-04-16T08:06:38;3.30;;;3.00;;
48040;SDS011;33815;48.386;11.738;2023-04-16T08:09:03;3.22;;;2.92;;
48040;SDS011;33815;48.386;11.738;2023-04-16T08:11:28;2.78;;;2.58;;
48040;SDS011;33815;48.386;11.738;2023-04-16T08:13:54;2.95;;;2.75;;
48040;SDS011;33815;48.386;11.738;2023-04-16T08:16:19;2.85;;;2.65;;
48040;SDS011;33815;48.386;11.738;2023-04-16T08:18:44;2.28;;;2.08;;
48040;SDS011;33815;48.386;11.738;2023-04-16T08:21:10;2.38;;;2.17;;
48040;SDS011;33815;48.386;11.738;2023-04-16T08:23:35;2.70;;;2.50;;
48040;SDS011;33815;48.386;11.738;2023-04-16T08:26:00;2.90;;;2.30;;
48040;SDS011;33815;48.386;11.738;2023-04-16T08:28:26;1.90;;;1.80;;
48040;SDS011;33815;48.386;11.738;2023-04-16T08:30:51;2.63;;;2.17;;
48040;SDS011;33815;48.386;11.738;2023-04-16T08:33:16;1.83;;;1.73;;
48040;SDS011;33815;48.386;11.738;2023-04-16T08:35:42;1.98;;;1.88;;
48040;SDS011;33815;48.386;11.738;2023-04-16T08:38:07;1.60;;;1.50;;
48040;SDS011;33815;48.386;11.738;2023-04-16T08:40:33;1.40;;;1.35;;
48040;SDS011;33815;48.386;11.738;2023-04-16T08:43:01;1.95;;;1.70;;
48040;SDS011;33815;48.386;11.738;2023-04-16T08:45:31;2.05;;;1.90;;
48040;SDS011;33815;48.386;11.738;2023-04-16T08:47:58;1.70;;;1.15;;
48040;SDS011;33815;48.386;11.738;2023-04-16T08:50:25;1.60;;;1.50;;
48040;SDS011;33815;48.386;11.738;2023-04-16T08:53:14;1.70;;;1.60;;
48040;SDS011;33815;48.386;11.738;2023-04-16T08:55:48;1.02;;;1.02;;
48040;SDS011;33815;48.386;11.738;2023-04-16T08:58:18;1.10;;;1.10;;
48040;SDS011;33815;48.386;11.738;2023-04-16T09:00:50;1.25;;;1.23;;
48040;SDS011;33815;48.386;11.738;2023-04-16T09:03:16;2.35;;;1.30;;
48040;SDS011;33815;48.386;11.738;2023-04-16T09:05:43;1.10;;;1.10;;
48040;SDS011;33815;48.386;11.738;2023-04-16T09:08:10;1.05;;;0.70;;
48040;SDS011;33815;48.386;11.738;2023-04-16T09:10:36;0.90;;;0.90;;
48040;SDS011;33815;48.386;11.738;2023-04-16T09:13:01;1.23;;;1.23;;
48040;SDS011;33815;48.386;11.738;2023-04-16T09:15:27;2.00;;;1.35;;
48040;SDS011;33815;48.386;11.738;2023-04-16T09:17:53;1.13;;;1.13;;
48040;SDS011;33815;48.386;11.738;2023-04-16T09:20:20;0.93;;;0.90;;
48040;SDS011;33815;48.386;11.738;2023-04-16T09:22:45;1.20;;;1.10;;
48040;SDS011;33815;48.386;11.738;2023-04-16T09:25:11;1.13;;;1.13;;
48040;SDS011;33815;48.386;11.738;2023-04-16T09:27:37;0.50;;;0.50;;
48040;SDS011;33815;48.386;11.738;2023-04-16T09:30:24;0.50;;;0.50;;
48040;SDS011;33815;48.386;11.738;2023-04-16T09:32:51;1.00;;;0.63;;
48040;SDS011;33815;48.386;11.738;2023-04-16T09:35:43;2.92;;;0.68;;
48040;SDS011;33815;48.386;11.738;2023-04-16T09:38:18;1.08;;;1.05;;
48040;SDS011;33815;48.386;11.738;2023-04-16T09:40:44;2.90;;;2.45;;
48040;SDS011;33815;48.386;11.738;2023-04-16T09:43:15;1.20;;;1.10;;
48040;SDS011;33815;48.386;11.738;2023-04-16T09:45:50;1.08;;;1.02;;
48040;SDS011;33815;48.386;11.738;2023-04-16T09:50:52;14.05;;;8.90;;
48040;SDS011;33815;48.386;11.738;2023-04-16T09:53:24;17.17;;;8.37;;
48040;SDS011;33815;48.386;11.738;2023-04-16T09:55:50;4.05;;;3.10;;
48040;SDS011;33815;48.386;11.738;2023-04-16T09:58:19;0.80;;;0.80;;
48040;SDS011;33815;48.386;11.738;2023-04-16T10:00:45;0.40;;;0.40;;
48040;SDS011;33815;48.386;11.738;2023-04-16T10:03:10;1.10;;;1.10;;
48040;SDS011;33815;48.386;11.738;2023-04-16T10:05:35;0.60;;;0.60;;
48040;SDS011;33815;48.386;11.738;2023-04-16T10:08:01;0.80;;;0.80;;
48040;SDS011;33815;48.386;11.738;2023-04-16T10:10:27;0.40;;;0.40;;
48040;SDS011;33815;48.386;11.738;2023-04-16T10:12:53;0.50;;;0.50;;
48040;SDS011;33815;48.386;11.738;2023-04-16T10:15:19;0.38;;;0.38;;
48040;SDS011;33815;48.386;11.738;2023-04-16T10:17:45;0.30;;;0.30;;
48040;SDS011;33815;48.386;11.738;2023-04-16T10:20:11;1.33;;;1.23;;
48040;SDS011;33815;48.386;11.738;2023-04-16T10:22:37;0.60;;;0.60;;
48040;SDS011;33815;48.386;11.738;2023-04-16T10:25:03;0.77;;;0.77;;
48040;SDS011;33815;48.386;11.738;2023-04-16T10:27:29;16.73;;;5.82;;
48040;SDS011;33815;48.386;11.738;2023-04-16T10:29:55;1.77;;;1.42;;
48040;SDS011;33815;48.386;11.738;2023-04-16T10:32:20;20.92;;;6.35;;
48040;SDS011;33815;48.386;11.738;2023-04-16T10:34:46;0.60;;;0.60;;
48040;SDS011;33815;48.386;11.738;2023-04-16T10:37:12;0.40;;;0.40;;
48040;SDS011;33815;48.386;11.738;2023-04-16T10:39:41;44.15;;;20.02;;
48040;SDS011;33815;48.386;11.738;2023-04-16T10:42:08;25.30;;;14.15;;
48040;SDS011;33815;48.386;11.738;2023-04-16T10:44:34;12.55;;;6.85;;
48040;SDS011;33815;48.386;11.738;2023-04-16T10:47:00;17.55;;;10.68;;
48040;SDS011;33815;48.386;11.738;2023-04-16T10:49:25;8.75;;;5.43;;
48040;SDS011;33815;48.386;11.738;2023-04-16T10:51:57;11.95;;;9.70;;
48040;SDS011;33815;48.386;11.738;2023-04-16T10:54:33;21.90;;;12.40;;
48040;SDS011;33815;48.386;11.738;2023-04-16T10:57:03;1.08;;;1.05;;
48040;SDS011;33815;48.386;11.738;2023-04-16T10:59:31;18.35;;;5.88;;
48040;SDS011;33815;48.386;11.738;2023-04-16T11:01:59;0.90;;;0.68;;
48040;SDS011;33815;48.386;11.738;2023-04-16T11:04:35;0.60;;;0.60;;
48040;SDS011;33815;48.386;11.738;2023-04-16T11:07:05;0.40;;;0.40;;
48040;SDS011;33815;48.386;11.738;2023-04-16T11:12:16;5.82;;;1.70;;
48040;SDS011;33815;48.386;11.738;2023-04-16T11:14:47;0.40;;;0.40;;
48040;SDS011;33815;48.386;11.738;2023-04-16T11:17:17;31.63;;;8.35;;
48040;SDS011;33815;48.386;11.738;2023-04-16T11:19:43;4.35;;;2.40;;
48040;SDS011;33815;48.386;11.738;2023-04-16T11:22:11;0.55;;;0.55;;
48040;SDS011;33815;48.386;11.738;2023-04-16T11:24:41;0.25;;;0.25;;
48040;SDS011;33815;48.386;11.738;2023-04-16T11:27:07;0.50;;;0.40;;
48040;SDS011;33815;48.386;11.738;2023-04-16T11:29:33;1.98;;;1.88;;
48040;SDS011;33815;48.386;11.738;2023-04-16T11:31:58;1.58;;;1.48;;
48040;SDS011;33815;48.386;11.738;2023-04-16T11:34:23;0.85;;;0.85;;
48040;SDS011;33815;48.386;11.738;2023-04-16T11:36:50;2.80;;;2.17;;
48040;SDS011;33815;48.386;11.738;2023-04-16T11:39:16;0.82;;;0.82;;
48040;SDS011;33815;48.386;11.738;2023-04-16T11:41:48;0.50;;;0.50;;
48040;SDS011;33815;48.386;11.738;2023-04-16T11:46:49;0.65;;;0.65;;
48040;SDS011;33815;48.386;11.738;2023-04-16T11:49:16;0.50;;;0.50;;
48040;SDS011;33815;48.386;11.738;2023-04-16T11:51:51;0.63;;;0.60;;
48040;SDS011;33815;48.386;11.738;2023-04-16T11:54:20;3.10;;;0.70;;
48040;SDS011;33815;48.386;11.738;2023-04-16T11:56:47;0.50;;;0.50;;
48040;SDS011;33815;48.386;11.738;2023-04-16T11:59:15;0.68;;;0.50;;
48040;SDS011;33815;48.386;11.738;2023-04-16T12:01:42;0.60;;;0.60;;
48040;SDS011;33815;48.386;11.738;2023-04-16T12:04:13;0.40;;;0.40;;
48040;SDS011;33815;48.386;11.738;2023-04-16T12:06:40;0.50;;;0.50;;
48040;SDS011;33815;48.386;11.738;2023-04-16T12:09:25;0.30;;;0.30;;
48040;SDS011;33815;48.386;11.738;2023-04-16T12:11:51;0.30;;;0.30;;
48040;SDS011;33815;48.386;11.738;2023-04-16T12:14:17;0.50;;;0.50;;
48040;SDS011;33815;48.386;11.738;2023-04-16T12:16:42;0.95;;;0.75;;
48040;SDS011;33815;48.386;11.738;2023-04-16T12:19:10;0.60;;;0.50;;
48040;SDS011;33815;48.386;11.738;2023-04-16T12:21:40;1.48;;;0.60;;
48040;SDS011;33815;48.386;11.738;2023-04-16T12:24:08;0.50;;;0.50;;
48040;SDS011;33815;48.386;11.738;2023-04-16T12:26:35;0.63;;;0.63;;
48040;SDS011;33815;48.386;11.738;2023-04-16T12:29:39;8.38;;;4.50;;
48040;SDS011;33815;48.386;11.738;2023-04-16T12:31:58;2.50;;;1.35;;
48040;SDS011;33815;48.386;11.738;2023-04-16T12:34:23;7.50;;;4.15;;
48040;SDS011;33815;48.386;11.738;2023-04-16T12:37:02;3.67;;;2.53;;
48040;SDS011;33815;48.386;11.738;2023-04-16T12:39:30;0.70;;;0.70;;
48040;SDS011;33815;48.386;11.738;2023-04-16T12:41:55;5.03;;;3.17;;
48040;SDS011;33815;48.386;11.738;2023-04-16T12:44:20;0.57;;;0.57;;
48040;SDS011;33815;48.386;11.738;2023-04-16T12:46:46;0.45;;;0.45;;
48040;SDS011;33815;48.386;11.738;2023-04-16T12:49:11;0.50;;;0.50;;
48040;SDS011;33815;48.386;11.738;2023-04-16T12:51:37;0.40;;;0.40;;
48040;SDS011;33815;48.386;11.738;2023-04-16T12:54:03;0.73;;;0.60;;
48040;SDS011;33815;48.386;11.738;2023-04-16T12:56:31;0.55;;;0.52;;
48040;SDS011;33815;48.386;11.738;2023-04-16T12:58:57;0.60;;;0.60;;
48040;SDS011;33815;48.386;11.738;2023-04-16T13:01:23;0.55;;;0.55;;
48040;SDS011;33815;48.386;11.738;2023-04-16T13:03:48;0.50;;;0.50;;
48040;SDS011;33815;48.386;11.738;2023-04-16T13:06:15;0.43;;;0.43;;
48040;SDS011;33815;48.386;11.738;2023-04-16T13:08:42;1.05;;;1.05;;
48040;SDS011;33815;48.386;11.738;2023-04-16T13:11:08;0.70;;;0.70;;
48040;SDS011;33815;48.386;11.738;2023-04-16T13:13:34;0.68;;;0.55;;
48040;SDS011;33815;48.386;11.738;2023-04-16T13:16:00;0.75;;;0.75;;
48040;SDS011;33815;48.386;11.738;2023-04-16T13:18:27;2.78;;;2.67;;
48040;SDS011;33815;48.386;11.738;2023-04-16T13:20:53;0.70;;;0.70;;
48040;SDS011;33815;48.386;11.738;2023-04-16T13:23:18;2.67;;;2.47;;
48040;SDS011;33815;48.386;11.738;2023-04-16T13:25:44;0.80;;;0.80;;
48040;SDS011;33815;48.386;11.738;2023-04-16T13:28:09;1.33;;;1.08;;
48040;SDS011;33815;48.386;11.738;2023-04-16T13:30:34;1.20;;;1.10;;
48040;SDS011;33815;48.386;11.738;2023-04-16T13:32:59;1.40;;;1.30;;
48040;SDS011;33815;48.386;11.738;2023-04-16T13:35:25;1.50;;;1.40;;
48040;SDS011;33815;48.386;11.738;2023-04-16T13:37:51;4.43;;;4.03;;
48040;SDS011;33815;48.386;11.738;2023-04-16T13:40:16;0.70;;;0.70;;
48040;SDS011;33815;48.386;11.738;2023-04-16T13:42:41;0.82;;;0.82;;
48040;SDS011;33815;48.386;11.738;2023-04-16T13:45:07;0.70;;;0.70;;
48040;SDS011;33815;48.386;11.738;2023-04-16T13:47:33;0.50;;;0.50;;
48040;SDS011;33815;48.386;11.738;2023-04-16T13:49:59;1.15;;;1.02;;
48040;SDS011;33815;48.386;11.738;2023-04-16T13:52:24;12.40;;;7.60;;
48040;SDS011;33815;48.386;11.738;2023-04-16T13:54:50;2.03;;;1.80;;
48040;SDS011;33815;48.386;11.738;2023-04-16T13:57:15;5.83;;;3.17;;
48040;SDS011;33815;48.386;11.738;2023-04-16T13:59:42;1.15;;;1.05;;
48040;SDS011;33815;48.386;11.738;2023-04-16T14:02:07;0.70;;;0.70;;
48040;SDS011;33815;48.386;11.738;2023-04-16T14:04:34;0.65;;;0.65;;
48040;SDS011;33815;48.386;11.738;2023-04-16T14:07:00;0.60;;;0.60;;
48040;SDS011;33815;48.386;11.738;2023-04-16T14:09:25;0.60;;;0.60;;
48040;SDS011;33815;48.386;11.738;2023-04-16T14:11:51;0.70;;;0.70;;
48040;SDS011;33815;48.386;11.738;2023-04-16T14:14:16;0.57;;;0.57;;
48040;SDS011;33815;48.386;11.738;2023-04-16T14:16:42;0.57;;;0.57;;
48040;SDS011;33815;48.386;11.738;2023-04-16T14:19:07;0.65;;;0.65;;
48040;SDS011;33815;48.386;11.738;2023-04-16T14:21:32;1.20;;;1.10;;
48040;SDS011;33815;48.386;11.738;2023-04-16T14:23:58;0.70;;;0.70;;
48040;SDS011;33815;48.386;11.738;2023-04-16T14:26:23;0.50;;;0.50;;
48040;SDS011;33815;48.386;11.738;2023-04-16T14:28:49;0.95;;;0.50;;
48040;SDS011;33815;48.386;11.738;2023-04-16T14:31:15;1.00;;;0.98;;
48040;SDS011;33815;48.386;11.738;2023-04-16T14:33:41;1.02;;;1.02;;
48040;SDS011;33815;48.386;11.738;2023-04-16T14:36:07;0.70;;;0.70;;